Time;durP1;ratioP1;P1;durP2;ratioP2;P2;SDS_P1;SDS_P2;PMS_P1;PMS_P2;Temp;Humidity;BMP_temperature;BMP_pressure;BME280_temperature;BME280_humidity;BME280_pressure;Samples;Min_cycle;Max_cycle;Signal;HPM_P1;HPM_P2
2021/11/26 00:00:38;;;;;;;32.67;21.50;;;1.80;69.70;;;0.10;81.55;97090.09;4955648;28;20531;-72
2021/11/26 00:03:05;;;;;;;36.80;21.33;;;1.70;69.80;;;0.10;81.57;97087.44;4969428;28;20480;-70
2021/11/26 00:05:34;;;;;;;32.30;20.93;;;1.70;70.10;;;0.23;80.89;97084.28;4972976;28;20535;-70
2021/11/26 00:08:01;;;;;;;35.90;22.03;;;1.80;69.80;;;0.25;81.25;97076.94;4969950;28;20807;-70
2021/11/26 00:10:28;;;;;;;34.33;21.53;;;1.80;70.20;;;0.42;80.26;97071.56;4953876;28;20446;-70
2021/11/26 00:12:58;;;;;;;36.03;21.60;;;1.90;69.90;;;0.35;80.85;97070.56;4957515;28;20823;-71
2021/11/26 00:15:38;;;;;;;32.60;19.63;;;1.80;70.00;;;0.24;81.11;97061.16;4971478;28;20561;-69
2021/11/26 00:18:08;;;;;;;33.70;21.90;;;1.80;69.90;;;0.25;81.38;97062.81;4955446;28;20825;-72
2021/11/26 00:20:38;;;;;;;33.97;19.93;;;1.80;70.20;;;0.44;80.50;97058.06;4969251;28;20547;-69
2021/11/26 00:23:07;;;;;;;31.80;19.43;;;1.90;70.20;;;0.64;79.51;97053.13;4951108;28;20461;-70
2021/11/26 00:25:35;;;;;;;35.07;21.20;;;2.00;69.90;;;0.65;79.71;97046.81;4972804;28;20552;-70
2021/11/26 00:28:03;;;;;;;39.43;22.43;;;2.10;69.60;;;0.65;79.17;97039.69;4969727;28;20505;-69
2021/11/26 00:30:30;;;;;;;36.90;21.03;;;2.10;69.30;;;0.41;80.37;97032.69;4965025;28;20450;-70
2021/11/26 00:32:57;;;;;;;34.23;20.07;;;2.00;69.30;;;0.63;79.73;97025.75;4973496;28;20454;-69
2021/11/26 00:35:24;;;;;;;34.67;19.40;;;2.10;69.60;;;0.31;81.08;97021.44;4966697;28;20477;-70
2021/11/26 00:37:53;;;;;;;33.83;20.47;;;1.90;69.60;;;0.42;80.52;97013.09;4970634;28;20461;-70
2021/11/26 00:40:20;;;;;;;31.67;18.43;;;1.90;69.90;;;0.47;80.47;97008.06;4968362;28;20865;-70
2021/11/26 00:42:47;;;;;;;33.30;20.60;;;2.00;69.80;;;0.50;79.92;97018.34;4971045;28;20465;-70
2021/11/26 00:45:16;;;;;;;33.33;21.47;;;2.00;69.70;;;0.29;80.93;97018.94;4962193;28;20477;-71
2021/11/26 00:47:46;;;;;;;36.90;22.00;;;1.90;70.00;;;0.14;81.86;97016.22;4965726;28;20493;-70
2021/11/26 00:50:16;;;;;;;30.90;21.00;;;1.80;70.50;;;0.25;81.92;97002.56;4962289;28;20461;-69
2021/11/26 00:52:44;;;;;;;34.43;21.50;;;1.80;70.70;;;0.11;82.30;97000.63;4971162;28;20470;-69
2021/11/26 00:55:14;;;;;;;38.53;22.37;;;1.70;70.70;;;0.12;82.43;96989.00;4969716;28;20527;-68
2021/11/26 00:57:42;;;;;;;37.67;21.53;;;1.70;71.30;;;0.35;81.71;96980.22;4968332;28;20461;-70
2021/11/26 01:00:13;;;;;;;34.60;21.07;;;1.80;71.40;;;0.38;81.02;96990.50;4965597;28;20491;-70
2021/11/26 01:02:41;;;;;;;37.57;20.97;;;1.90;70.80;;;0.34;81.51;96986.53;4956557;28;20539;-70
2021/11/26 01:05:11;;;;;;;34.77;20.50;;;1.90;71.10;;;0.28;81.80;96980.94;4969195;28;20533;-70
2021/11/26 01:07:38;;;;;;;35.13;20.57;;;1.90;70.80;;;0.33;81.87;96963.63;4972056;28;20495;-69
2021/11/26 01:10:08;;;;;;;33.93;20.47;;;1.80;71.50;;;0.31;81.96;96971.81;4969625;28;21307;-70
2021/11/26 01:12:37;;;;;;;34.90;20.30;;;1.80;71.30;;;0.27;81.94;96968.66;4968916;28;20988;-70
2021/11/26 01:15:07;;;;;;;34.23;21.67;;;1.80;71.10;;;0.39;81.73;96973.56;4969347;28;20451;-70
2021/11/26 01:17:36;;;;;;;39.30;22.47;;;1.90;71.30;;;0.49;80.95;96966.19;4971283;28;20464;-70
2021/11/26 01:20:07;;;;;;;33.93;21.90;;;1.90;71.00;;;0.46;80.90;96963.88;4968290;28;20482;-71
2021/11/26 01:22:34;;;;;;;38.43;21.97;;;2.00;70.60;;;0.45;81.56;96969.34;4968650;28;20465;-72
2021/11/26 01:25:01;;;;;;;35.17;21.40;;;1.90;71.00;;;0.37;81.36;96964.94;4955361;28;20465;-70
2021/11/26 01:27:28;;;;;;;36.07;21.17;;;1.90;70.70;;;0.42;81.49;96952.75;4969553;28;20477;-70
2021/11/26 01:29:57;;;;;;;31.93;21.00;;;1.90;71.00;;;0.42;81.54;96963.41;4969891;28;20473;-71
2021/11/26 01:32:25;;;;;;;32.60;20.90;;;1.90;71.10;;;0.17;82.39;96965.38;4951072;28;20485;-70
2021/11/26 01:34:52;;;;;;;34.57;20.00;;;1.80;71.40;;;0.49;81.95;96971.50;4965780;28;20965;-70
2021/11/26 01:37:19;;;;;;;37.17;22.33;;;1.90;71.90;;;0.43;81.39;96956.25;4949814;28;20461;-70
2021/11/26 01:39:47;;;;;;;33.90;20.90;;;1.90;71.30;;;0.31;81.96;96957.66;4965050;28;20462;-70
2021/11/26 01:42:15;;;;;;;35.60;21.33;;;1.80;71.50;;;0.20;82.53;96962.38;4969689;28;20450;-72
2021/11/26 01:44:42;;;;;;;36.33;22.40;;;1.70;71.80;;;0.39;82.16;96949.66;4972070;28;20480;-70
2021/11/26 01:47:13;;;;;;;37.23;21.60;;;1.90;72.10;;;0.61;81.28;96955.13;4970153;28;20540;-70
2021/11/26 01:49:40;;;;;;;35.57;20.20;;;2.00;71.60;;;0.39;82.15;96952.31;4965050;28;20977;-70
2021/11/26 01:52:07;;;;;;;37.17;21.80;;;1.90;71.60;;;0.34;82.60;96952.00;4963744;28;20474;-69
2021/11/26 01:54:34;;;;;;;34.40;21.33;;;1.90;71.90;;;0.17;82.87;96951.28;4969637;28;20464;-70
2021/11/26 01:57:02;;;;;;;35.20;21.80;;;1.70;71.90;;;0.20;82.52;96951.75;4970626;28;20476;-70
2021/11/26 01:59:31;;;;;;;36.77;20.97;;;1.80;72.10;;;0.24;82.65;96941.59;4965926;28;20472;-70
2021/11/26 02:01:58;;;;;;;35.80;21.97;;;1.70;72.30;;;0.17;83.35;96932.69;4967399;28;21039;-70
2021/11/26 02:04:26;;;;;;;37.60;21.80;;;1.70;72.70;;;0.10;83.38;96936.03;4968165;28;20470;-70
2021/11/26 02:06:54;;;;;;;34.83;20.07;;;1.70;72.70;;;0.34;82.90;96925.41;4970061;28;21078;-69
2021/11/26 02:09:21;;;;;;;37.67;22.10;;;1.80;73.00;;;0.06;83.35;96916.16;4968397;28;20472;-70
2021/11/26 02:11:48;;;;;;;43.33;22.63;;;1.80;72.60;;;0.25;82.86;96928.16;4971023;28;20810;-70
2021/11/26 02:14:15;;;;;;;36.20;21.87;;;1.80;73.10;;;0.30;82.94;96930.25;4972374;28;20469;-69
2021/11/26 02:16:45;;;;;;;37.27;20.67;;;1.80;72.70;;;0.46;82.26;96926.66;4968240;28;20930;-70
2021/11/26 02:19:12;;;;;;;33.27;20.97;;;1.90;72.50;;;0.31;82.34;96934.59;4964530;28;20470;-70
2021/11/26 02:21:42;;;;;;;35.20;21.20;;;1.80;72.10;;;0.26;82.32;96929.81;4966833;28;20469;-70
2021/11/26 02:24:09;;;;;;;39.50;23.40;;;1.80;72.40;;;0.10;83.84;96932.56;4962788;28;20780;-70
2021/11/26 02:26:37;;;;;;;38.50;21.90;;;1.70;72.80;;;0.11;83.51;96923.59;4967879;28;20476;-70
2021/11/26 02:29:06;;;;;;;34.10;20.97;;;1.70;73.30;;;0.40;82.70;96924.72;4965623;28;20536;-69
2021/11/26 02:31:33;;;;;;;32.03;20.93;;;1.80;73.10;;;0.16;83.15;96915.09;4955862;28;20446;-70
2021/11/26 02:34:00;;;;;;;34.47;21.23;;;1.70;72.80;;;0.10;83.68;96920.09;4948323;28;20513;-70
2021/11/26 02:36:28;;;;;;;34.40;21.00;;;1.70;73.40;;;0.24;83.32;96909.72;4969288;28;20469;-70
2021/11/26 02:38:56;;;;;;;39.83;23.50;;;1.70;73.50;;;0.44;82.44;96904.75;4949004;28;21028;-70
2021/11/26 02:41:24;;;;;;;37.00;22.60;;;1.90;73.10;;;0.54;82.57;96904.50;4968019;28;20508;-70
2021/11/26 02:43:51;;;;;;;30.73;19.83;;;1.90;73.10;;;0.56;81.81;96898.03;4953232;28;20508;-71
2021/11/26 02:46:19;;;;;;;30.57;19.73;;;2.00;72.70;;;0.58;81.82;96894.34;4952753;28;20476;-70
2021/11/26 02:48:47;;;;;;;33.53;21.03;;;2.10;72.20;;;0.48;82.39;96894.59;4967939;28;20465;-70
2021/11/26 02:51:14;;;;;;;36.50;22.43;;;2.00;72.30;;;0.54;81.82;96893.88;4962811;28;20468;-69
2021/11/26 02:53:41;;;;;;;33.30;22.23;;;2.10;72.20;;;0.52;82.27;96895.88;4950836;28;20450;-70
2021/11/26 02:56:10;;;;;;;37.20;22.33;;;2.00;72.40;;;0.44;81.96;96888.81;4967267;28;20919;-70
2021/11/26 02:58:37;;;;;;;36.97;23.17;;;2.00;72.20;;;0.42;82.32;96883.66;4968774;28;20459;-69
2021/11/26 03:01:04;;;;;;;34.50;21.77;;;1.90;72.30;;;0.63;81.62;96889.31;4969415;28;20981;-70
2021/11/26 03:03:32;;;;;;;34.70;22.97;;;2.00;72.30;;;0.10;82.01;96826.31;4965982;28;20538;-70
2021/11/26 03:06:01;;;;;;;32.37;20.13;;;2.00;72.30;;;0.28;82.71;96885.28;4967630;28;20509;-71
2021/11/26 03:08:30;;;;;;;33.73;20.60;;;1.90;72.20;;;0.38;82.99;96876.22;4964927;28;20493;-68
2021/11/26 03:10:58;;;;;;;35.77;22.03;;;1.80;72.90;;;0.17;83.16;96866.28;4964652;28;20466;-69
2021/11/26 03:13:28;;;;;;;37.77;23.07;;;1.80;72.60;;;0.07;84.53;96877.13;4972492;28;20492;-70
2021/11/26 03:15:56;;;;;;;38.10;21.60;;;1.70;73.70;;;0.15;84.29;96869.09;4973879;28;20468;-68
2021/11/26 03:18:26;;;;;;;35.53;22.30;;;1.70;74.20;;;0.07;84.24;96861.19;4973185;28;20523;-70
2021/11/26 03:20:53;;;;;;;37.30;21.53;;;1.70;74.10;;;0.17;84.42;96855.66;4969022;28;20480;-69
2021/11/26 03:23:23;;;;;;;37.70;23.57;;;1.70;74.30;;;0.17;84.84;96850.34;4971956;28;20866;-70
2021/11/26 03:25:50;;;;;;;40.00;22.20;;;1.70;74.70;;;0.24;84.00;96849.44;4971003;28;20580;-71
2021/11/26 03:28:18;;;;;;;41.37;23.60;;;1.80;74.40;;;0.22;84.31;96843.47;4970707;28;20477;-71
2021/11/26 03:30:48;;;;;;;37.97;21.80;;;1.80;74.40;;;-0.02;85.33;96842.66;4972566;28;20457;-70
2021/11/26 03:33:15;;;;;;;37.63;23.03;;;1.60;75.00;;;0.04;85.31;96835.81;4974026;28;20876;-71
2021/11/26 03:35:43;;;;;;;39.07;23.93;;;1.60;75.40;;;-0.05;85.51;96832.41;4973284;28;20469;-71
2021/11/26 03:38:10;;;;;;;41.17;23.10;;;1.60;75.70;;;-0.02;86.02;96832.03;4972422;28;20482;-70
2021/11/26 03:40:37;;;;;;;41.37;22.30;;;1.60;75.90;;;0.03;85.57;96822.69;4973064;28;20461;-70
2021/11/26 03:43:06;;;;;;;37.07;22.17;;;1.60;75.70;;;0.12;85.33;96817.16;4969702;28;20524;-71
2021/11/26 03:45:35;;;;;;;32.20;20.90;;;1.60;76.00;;;0.35;83.75;96823.44;4972403;28;20485;-71
2021/11/26 03:48:04;;;;;;;34.13;21.60;;;1.80;75.10;;;0.33;84.76;96818.31;4956843;28;20481;-72
2021/11/26 03:50:31;;;;;;;35.80;22.70;;;1.80;75.00;;;0.55;83.09;96810.47;4974268;28;20869;-71
2021/11/26 03:52:59;;;;;;;33.80;21.43;;;1.90;74.70;;;0.26;84.00;96807.59;4968550;28;20497;-71
2021/11/26 03:55:29;;;;;;;36.53;23.17;;;1.90;74.40;;;0.06;85.46;96817.03;4957774;28;20469;-71
2021/11/26 03:57:59;;;;;;;38.70;22.20;;;1.70;75.10;;;-0.04;85.92;96811.97;4973015;28;20555;-70
2021/11/26 04:00:27;;;;;;;36.20;22.10;;;1.60;75.50;;;0.06;85.95;96807.25;4969692;28;20481;-73
2021/11/26 04:02:55;;;;;;;37.00;22.43;;;1.60;76.20;;;0.25;85.13;96805.09;4958528;28;20462;-71
2021/11/26 04:05:24;;;;;;;36.43;22.10;;;1.70;75.60;;;0.39;84.39;96799.00;4969405;28;21020;-70
2021/11/26 04:07:52;;;;;;;35.17;21.93;;;1.80;75.40;;;0.54;83.38;96795.53;4968567;28;20567;-71
2021/11/26 04:10:20;;;;;;;37.40;22.87;;;2.00;74.80;;;0.51;83.10;96799.38;4968842;28;20449;-71
2021/11/26 04:12:50;;;;;;;36.67;22.70;;;2.00;74.30;;;0.58;82.88;96790.69;4972569;28;20473;-70
2021/11/26 04:15:18;;;;;;;42.13;23.00;;;2.00;74.10;;;0.58;83.05;96788.03;4969495;28;20531;-70
2021/11/26 04:17:48;;;;;;;35.10;21.17;;;2.00;74.00;;;0.39;83.59;96779.56;4969601;28;21166;-69
2021/11/26 04:20:17;;;;;;;41.23;24.27;;;2.00;74.00;;;0.33;83.98;96769.66;4971538;28;20453;-71
2021/11/26 04:22:47;;;;;;;37.90;22.50;;;1.90;74.10;;;0.33;83.65;96780.28;4975888;28;20522;-70
2021/11/26 04:25:17;;;;;;;37.83;23.17;;;1.90;74.30;;;0.36;84.43;96779.91;4972067;28;20472;-70
2021/11/26 04:27:44;;;;;;;35.47;21.43;;;1.90;74.30;;;0.38;83.56;96770.75;4968672;28;20477;-70
2021/11/26 04:30:13;;;;;;;39.13;23.17;;;1.90;74.10;;;0.59;82.99;96782.50;4968515;28;20480;-70
2021/11/26 04:32:41;;;;;;;40.20;25.47;;;2.00;74.20;;;0.70;82.16;96770.63;4971792;28;20546;-71
2021/11/26 04:35:11;;;;;;;39.67;24.07;;;2.10;73.50;;;0.67;82.18;96777.13;4971857;28;20464;-72
2021/11/26 04:37:39;;;;;;;39.20;24.80;;;2.10;73.50;;;0.45;82.85;96767.38;4954639;28;20464;-70
2021/11/26 04:40:10;;;;;;;39.80;23.80;;;2.10;73.50;;;0.45;83.63;96762.88;4971047;28;20529;-70
2021/11/26 04:42:39;;;;;;;36.50;22.90;;;2.00;73.80;;;0.47;83.30;96752.91;4976475;28;20477;-70
2021/11/26 04:45:08;;;;;;;39.70;23.50;;;2.10;73.80;;;0.56;83.27;96756.28;4971047;28;20473;-71
2021/11/26 04:47:36;;;;;;;39.40;24.13;;;2.00;73.90;;;0.62;82.81;96760.06;4973313;28;20492;-70
2021/11/26 04:50:05;;;;;;;39.30;22.80;;;2.10;73.80;;;0.70;82.58;96744.84;4953986;28;20848;-70
2021/11/26 04:52:33;;;;;;;36.77;23.40;;;2.10;73.70;;;0.69;82.41;96739.72;4951156;28;20805;-71
2021/11/26 04:55:00;;;;;;;42.50;23.50;;;2.20;73.40;;;0.56;82.59;96727.88;4969195;28;20495;-71
2021/11/26 04:57:28;;;;;;;35.37;22.20;;;2.20;73.60;;;0.68;83.05;96738.03;4956598;28;20453;-70
2021/11/26 04:59:56;;;;;;;40.50;25.00;;;2.20;73.60;;;0.66;82.89;96735.59;4969800;28;20434;-72
2021/11/26 05:02:23;;;;;;;40.27;24.80;;;2.10;73.60;;;0.63;83.47;96735.97;4973107;28;20552;-72
2021/11/26 05:04:51;;;;;;;45.80;27.00;;;2.10;73.80;;;0.62;83.41;96730.81;4972082;28;20488;-71
2021/11/26 05:07:20;;;;;;;42.67;25.97;;;2.10;74.00;;;0.49;83.19;96705.69;4971678;28;20565;-72
2021/11/26 05:09:48;;;;;;;38.80;23.23;;;2.10;74.00;;;0.33;84.33;96719.16;4963515;28;20488;-71
2021/11/26 05:12:15;;;;;;;40.20;25.60;;;2.00;74.30;;;0.12;85.78;96726.03;4973270;28;20476;-70
2021/11/26 05:14:43;;;;;;;43.53;24.60;;;1.80;75.50;;;0.21;85.39;96719.59;4971782;28;20461;-70
2021/11/26 05:17:10;;;;;;;42.17;24.63;;;1.70;76.30;;;0.05;86.19;96723.25;4968225;28;20459;-70
2021/11/26 05:19:38;;;;;;;38.13;23.40;;;1.60;76.10;;;0.23;85.13;96717.63;4954564;28;20481;-71
2021/11/26 05:22:06;;;;;;;38.20;24.37;;;1.70;76.40;;;-0.03;86.47;96710.88;4968447;28;20476;-71
2021/11/26 05:24:33;;;;;;;42.03;25.50;;;1.60;76.70;;;0.01;86.52;96718.47;4969072;28;20473;-70
2021/11/26 05:27:01;;;;;;;40.70;25.20;;;1.60;77.30;;;0.00;86.79;96722.97;4945079;28;20524;-70
2021/11/26 05:29:28;;;;;;;38.97;25.43;;;1.50;77.20;;;0.21;85.52;96716.94;4969231;28;20480;-70
2021/11/26 05:31:57;;;;;;;42.57;24.07;;;1.70;76.80;;;0.24;85.71;96708.63;4965650;28;20520;-70
2021/11/26 05:34:25;;;;;;;45.97;25.57;;;1.70;77.20;;;0.25;85.68;96720.91;4966914;28;20527;-70
2021/11/26 05:36:53;;;;;;;43.00;24.83;;;1.70;76.80;;;0.11;86.02;96713.75;4968778;28;20516;-70
2021/11/26 05:39:20;;;;;;;46.07;26.60;;;1.70;76.40;;;0.30;85.52;96717.69;4963254;28;20481;-70
2021/11/26 05:41:48;;;;;;;43.80;24.30;;;1.80;76.90;;;0.25;84.96;96697.00;4969400;28;20454;-71
2021/11/26 05:44:15;;;;;;;45.00;26.70;;;1.90;76.20;;;0.23;85.16;96707.00;4948647;28;20470;-71
2021/11/26 05:46:43;;;;;;;48.40;27.10;;;1.90;76.10;;;0.13;86.03;96706.41;4974144;28;20462;-71
2021/11/26 05:49:11;;;;;;;41.40;25.77;;;1.80;76.90;;;0.19;85.99;96713.66;4953545;28;20568;-71
2021/11/26 05:51:39;;;;;;;43.80;26.57;;;1.70;76.90;;;0.04;86.97;96707.50;4968714;28;20466;-71
2021/11/26 05:54:06;;;;;;;40.73;25.80;;;1.60;77.40;;;0.12;86.17;96712.75;4970106;28;21233;-72
2021/11/26 05:56:33;;;;;;;44.47;26.47;;;1.70;76.90;;;0.06;86.39;96706.31;4966793;28;20477;-71
2021/11/26 05:59:00;;;;;;;47.40;25.77;;;1.70;76.80;;;0.28;86.43;96707.25;4966010;28;20456;-71
2021/11/26 06:01:27;;;;;;;49.23;27.87;;;1.80;77.30;;;0.58;89.06;96700.31;4963939;28;20492;-71
2021/11/26 06:03:54;;;;;;;47.40;27.60;;;1.90;80.80;;;0.83;86.77;96704.31;4961047;28;20553;-73
2021/11/26 06:06:23;;;;;;;41.40;26.70;;;2.20;79.50;;;0.82;84.24;96699.97;4967304;28;20442;-74
2021/11/26 06:08:50;;;;;;;49.23;27.87;;;2.30;76.30;;;0.75;86.18;96699.09;4958433;28;20528;-72
2021/11/26 06:11:17;;;;;;;43.00;25.50;;;2.20;77.50;;;0.79;85.06;96700.34;4976810;28;20462;-73
2021/11/26 06:13:44;;;;;;;43.40;26.00;;;2.30;76.60;;;0.74;83.03;96691.28;4955410;28;20549;-72
2021/11/26 06:16:12;;;;;;;43.17;25.00;;;2.30;74.50;;;0.39;84.42;96678.59;4972237;28;21142;-72
2021/11/26 06:18:39;;;;;;;43.10;26.33;;;2.10;75.30;;;0.46;84.16;96692.78;4971176;28;20894;-73
2021/11/26 06:21:06;;;;;;;48.67;27.27;;;2.10;75.10;;;0.37;84.48;96696.53;4965989;28;20461;-71
2021/11/26 06:23:35;;;;;;;45.97;27.90;;;2.00;75.20;;;0.50;84.28;96702.03;4967511;28;20576;-70
2021/11/26 06:26:02;;;;;;;45.17;27.13;;;2.00;75.40;;;0.36;84.69;96685.09;4952850;28;20458;-71
2021/11/26 06:28:29;;;;;;;49.40;27.87;;;2.00;75.40;;;0.30;84.10;96653.09;4967772;28;22196;-70
2021/11/26 06:30:57;;;;;;;47.30;28.00;;;2.00;75.60;;;0.44;84.26;96694.81;4962730;28;20466;-72
2021/11/26 06:33:24;;;;;;;47.10;27.00;;;2.00;75.10;;;0.34;84.64;96684.44;4966659;28;20507;-70
2021/11/26 06:35:51;;;;;;;45.30;27.13;;;1.90;75.30;;;0.24;85.09;96679.41;4968501;28;21055;-71
2021/11/26 06:38:18;;;;;;;45.40;26.73;;;1.80;75.90;;;0.35;85.13;96679.94;4968464;28;20469;-73
2021/11/26 06:40:47;;;;;;;46.23;25.73;;;1.90;76.00;;;0.31;85.39;96681.31;4965627;28;20803;-72
2021/11/26 06:43:14;;;;;;;45.13;27.47;;;1.90;76.50;;;0.31;85.70;96676.00;4964627;28;20823;-73
2021/11/26 06:45:43;;;;;;;49.07;28.10;;;1.90;76.60;;;0.33;85.99;96680.16;4965464;28;20480;-72
2021/11/26 06:48:10;;;;;;;46.47;26.53;;;1.90;76.80;;;0.27;84.84;96662.25;4964486;28;20485;-71
2021/11/26 06:50:38;;;;;;;43.60;27.10;;;1.90;75.80;;;0.45;84.85;96664.56;4947222;28;20510;-72
2021/11/26 06:53:05;;;;;;;46.60;27.37;;;2.00;76.00;;;0.24;85.14;96655.50;4970340;28;20466;-73
2021/11/26 06:55:34;;;;;;;42.83;26.40;;;1.90;76.00;;;0.25;85.35;96662.47;4943890;28;20505;-72
2021/11/26 06:58:03;;;;;;;47.57;27.43;;;1.90;76.00;;;0.22;85.68;96652.19;4969800;28;20445;-72
2021/11/26 07:00:31;;;;;;;51.33;29.73;;;1.80;76.20;;;0.30;85.59;96653.91;4964082;28;20641;-72
2021/11/26 07:02:58;;;;;;;46.07;27.47;;;1.80;76.60;;;0.35;85.21;96656.03;4950675;28;20853;-72
2021/11/26 07:05:25;;;;;;;47.77;27.43;;;1.90;76.30;;;0.30;85.98;96655.75;4968142;28;20465;-72
2021/11/26 07:07:52;;;;;;;50.33;27.10;;;1.90;76.70;;;0.31;86.01;96652.09;4948869;28;20478;-76
2021/11/26 07:10:19;;;;;;;51.17;27.60;;;1.80;77.20;;;0.39;85.08;96644.03;4961525;28;20830;-74
2021/11/26 07:12:47;;;;;;;48.73;27.77;;;1.90;76.70;;;0.45;84.90;96651.25;4959630;28;20469;-74
2021/11/26 07:15:17;;;;;;;48.17;26.97;;;2.00;76.10;;;0.55;84.97;96656.28;4973275;28;20461;-75
2021/11/26 07:17:44;;;;;;;48.77;27.73;;;2.00;76.20;;;0.39;84.70;96644.03;4966384;28;20469;-75
2021/11/26 07:20:13;;;;;;;40.80;25.43;;;2.00;75.90;;;0.56;84.50;96658.78;4966495;28;20461;-74
2021/11/26 07:22:44;;;;;;;50.53;29.05;;;2.10;75.80;;;0.31;85.57;96649.44;4961721;28;20775;-73
2021/11/26 07:25:11;;;;;;;45.97;25.87;;;1.90;75.70;;;0.35;85.44;96648.06;4955135;28;20202;-79
2021/11/26 07:27:38;;;;;;;45.40;26.77;;;1.90;76.50;;;0.35;85.82;96645.41;4951202;28;20462;-77
2021/11/26 07:30:08;;;;;;;51.00;26.90;;;1.90;76.80;;;0.46;85.50;96644.13;4967121;28;20516;-79
2021/11/26 07:32:38;;;;;;;47.13;26.40;;;1.90;77.10;;;0.38;84.83;96610.47;4963900;28;21112;-75
2021/11/26 07:35:08;;;;;;;43.10;25.80;;;2.10;76.10;;;0.60;84.84;96645.91;4983359;28;20472;-81
2021/11/26 07:37:36;;;;;;;46.03;26.80;;;2.10;76.10;;;0.49;84.89;96627.81;4961877;28;20450;-75
2021/11/26 07:40:10;;;;;;;46.07;27.50;;;2.10;75.90;;;0.39;85.72;96638.72;4952613;28;21138;-76
2021/11/26 07:42:37;;;;;;;50.17;28.30;;;2.00;76.20;;;0.52;85.31;96636.22;4974243;28;20531;-79
2021/11/26 07:45:07;;;;;;;55.47;28.03;;;2.10;76.40;;;0.14;84.44;96564.63;4954121;28;20461;-77
2021/11/26 07:47:35;;;;;;;48.07;27.80;;;2.10;76.00;;;0.58;84.42;96621.38;4966161;28;20803;-79
2021/11/26 07:50:03;;;;;;;43.87;26.63;;;2.10;76.00;;;0.52;84.79;96606.16;4969882;28;20570;-75
2021/11/26 07:52:31;;;;;;;48.60;28.10;;;2.20;76.20;;;0.58;84.86;96617.91;4968485;28;20508;-72
2021/11/26 07:54:59;;;;;;;49.93;26.90;;;2.10;76.30;;;0.68;84.78;96608.59;4953382;28;20913;-75
2021/11/26 07:57:26;;;;;;;45.57;27.70;;;2.20;76.40;;;0.50;84.86;96616.97;4972445;28;20461;-72
2021/11/26 07:59:53;;;;;;;55.47;28.40;;;2.10;75.70;;;0.42;85.79;96606.47;4970363;28;20461;-74
2021/11/26 08:02:20;;;;;;;54.23;29.20;;;2.10;76.30;;;0.40;85.96;96611.16;4974850;28;20461;-76
2021/11/26 08:04:49;;;;;;;50.63;27.73;;;2.00;76.90;;;0.18;87.48;96603.09;4977494;28;20468;-74
2021/11/26 08:07:16;;;;;;;49.87;29.77;;;1.80;77.80;;;0.23;87.81;96600.72;4981035;28;20470;-72
2021/11/26 08:09:43;;;;;;;54.00;30.63;;;1.80;78.70;;;0.36;87.94;96607.19;4948551;28;20487;-74
2021/11/26 08:12:11;;;;;;;55.50;29.33;;;1.90;79.70;;;0.49;87.55;96603.88;4979960;28;20585;-75
2021/11/26 08:14:38;;;;;;;52.30;28.43;;;2.00;79.30;;;0.25;88.25;96585.41;4956191;28;20469;-75
2021/11/26 08:17:05;;;;;;;55.47;30.60;;;1.90;79.40;;;0.39;88.96;96599.69;4972005;28;20465;-72
2021/11/26 08:19:32;;;;;;;58.67;32.60;;;1.90;80.40;;;0.54;89.68;96594.34;4948860;28;20469;-71
2021/11/26 08:22:01;;;;;;;54.13;30.40;;;2.10;82.00;;;0.39;89.33;96582.94;4975688;28;20453;-74
2021/11/26 08:24:29;;;;;;;56.70;30.60;;;2.10;81.50;;;0.61;90.22;96586.47;4964796;28;20452;-70
2021/11/26 08:26:56;;;;;;;60.03;32.70;;;2.10;83.00;;;0.63;89.50;96588.91;4963831;28;20477;-72
2021/11/26 08:29:24;;;;;;;54.57;29.43;;;2.20;81.90;;;0.64;90.52;96587.91;4966015;28;20484;-71
2021/11/26 08:31:51;;;;;;;63.80;37.10;;;2.10;83.10;;;0.66;89.97;96577.91;4968116;28;20461;-69
2021/11/26 08:34:18;;;;;;;55.23;32.20;;;2.20;82.70;;;0.45;91.54;96579.50;4964054;28;20210;-69
2021/11/26 08:36:45;;;;;;;60.80;31.67;;;2.10;83.50;;;0.47;91.68;96585.47;4965092;28;20480;-69
2021/11/26 08:39:14;;;;;;;54.10;30.97;;;2.10;84.80;;;0.81;89.60;96578.66;4966320;28;20547;-69
2021/11/26 08:41:41;;;;;;;58.37;32.03;;;2.20;83.30;;;1.02;89.28;96571.72;4965990;28;20465;-68
2021/11/26 08:44:09;;;;;;;51.50;31.17;;;2.40;82.30;;;1.13;87.93;96575.72;4962748;28;20512;-73
2021/11/26 08:46:36;;;;;;;60.30;31.90;;;2.60;81.00;;;0.97;88.83;96558.16;4953843;28;20984;-71
2021/11/26 08:49:04;;;;;;;53.93;30.40;;;2.60;81.30;;;1.01;88.83;96563.94;4973653;28;20480;-73
2021/11/26 08:51:35;;;;;;;56.60;31.27;;;2.60;81.60;;;0.79;89.33;96567.41;4977479;28;20461;-72
2021/11/26 08:54:02;;;;;;;54.33;30.27;;;2.40;81.60;;;0.87;89.08;96558.47;4972546;28;20460;-72
2021/11/26 08:56:31;;;;;;;58.25;32.25;;;2.40;82.00;;;0.90;89.04;96557.28;4950663;28;20454;-70
2021/11/26 08:58:58;;;;;;;53.50;30.80;;;2.50;82.10;;;1.08;88.80;96541.69;4967632;28;20198;-70
2021/11/26 09:01:26;;;;;;;58.57;31.20;;;2.60;82.20;;;1.05;89.07;96549.22;4966369;28;21669;-69
2021/11/26 09:03:53;;;;;;;64.87;32.43;;;2.60;81.60;;;1.31;88.10;96546.00;4947342;28;20466;-69
2021/11/26 09:06:23;;;;;;;56.70;31.57;;;2.70;81.80;;;1.20;88.25;96549.16;4965865;28;20458;-71
2021/11/26 09:08:50;;;;;;;54.70;32.23;;;2.70;81.50;;;1.27;87.96;96547.38;4962498;28;20480;-68
2021/11/26 09:11:18;;;;;;;60.77;32.20;;;2.80;80.90;;;1.16;89.45;96540.75;4963867;28;20461;-69
2021/11/26 09:13:46;;;;;;;54.33;30.73;;;2.70;82.00;;;1.24;87.89;96550.41;4967346;28;20967;-69
2021/11/26 09:16:14;;;;;;;56.77;30.27;;;2.70;80.80;;;1.26;88.26;96540.41;4964237;28;21028;-68
2021/11/26 09:18:42;;;;;;;55.63;30.60;;;2.70;81.80;;;1.35;87.11;96544.59;4965038;28;20476;-68
2021/11/26 09:21:10;;;;;;;53.63;29.37;;;2.80;80.20;;;1.29;87.05;96540.03;4944884;28;20450;-69
2021/11/26 09:23:38;;;;;;;58.43;32.10;;;2.80;79.80;;;1.24;87.62;96529.13;4948816;28;20544;-71
2021/11/26 09:26:05;;;;;;;57.90;28.70;;;2.80;80.00;;;1.26;87.51;96535.09;4966847;28;20824;-70
2021/11/26 09:28:33;;;;;;;61.07;31.73;;;2.80;80.00;;;1.32;86.84;96538.81;4963745;28;20484;-70
2021/11/26 09:31:02;;;;;;;56.00;31.43;;;2.80;79.80;;;1.18;88.02;96540.56;4965702;28;20573;-68
2021/11/26 09:33:35;;;;;;;66.80;41.28;;;2.70;80.50;;;1.38;87.36;96535.41;4966107;28;20465;-70
2021/11/26 09:36:04;;;;;;;62.03;34.47;;;2.80;80.30;;;1.35;87.66;96522.44;4949589;28;20194;-70
2021/11/26 09:38:32;;;;;;;60.97;32.83;;;2.80;80.30;;;1.26;87.69;96529.75;4967553;28;20465;-70
2021/11/26 09:40:59;;;;;;;60.53;33.07;;;2.80;80.70;;;1.39;87.03;96527.19;4951576;28;20516;-70
2021/11/26 09:43:27;;;;;;;54.73;31.30;;;2.90;79.90;;;0.95;88.96;96528.28;4950974;28;21170;-70
2021/11/26 09:45:55;;;;;;;65.57;37.22;;;2.70;80.60;;;1.16;89.05;96521.31;4968875;28;20472;-71
2021/11/26 09:48:24;;;;;;;54.13;32.40;;;2.60;81.50;;;1.41;87.86;96517.19;4952451;28;20202;-71
2021/11/26 09:50:51;;;;;;;60.90;33.27;;;2.80;81.30;;;1.36;86.25;96508.13;4968195;28;20536;-72
2021/11/26 09:53:21;;;;;;;62.43;33.30;;;2.80;79.00;;;1.31;89.07;96505.22;4969710;28;20469;-71
2021/11/26 09:55:52;;;;;;;62.47;32.87;;;2.80;81.40;;;1.74;86.37;96502.44;4970097;28;20516;-72
2021/11/26 09:58:21;;;;;;;53.70;29.07;;;3.00;80.20;;;1.73;85.62;96497.31;4967728;28;20539;-73
2021/11/26 10:00:50;;;;;;;58.40;31.73;;;3.10;78.80;;;1.85;85.30;96495.75;4962521;28;20517;-72
2021/11/26 10:03:18;;;;;;;57.90;30.87;;;3.10;78.80;;;1.87;84.60;96483.03;4964771;28;20465;-72
2021/11/26 10:05:47;;;;;;;53.33;29.17;;;3.30;78.10;;;2.00;84.70;96460.16;4951239;28;20446;-70
2021/11/26 10:08:23;;;;;;;59.57;32.40;;;3.40;78.00;;;2.03;84.00;96470.41;4962130;28;20469;-70
2021/11/26 10:10:50;;;;;;;65.97;32.90;;;3.40;77.20;;;1.93;84.44;96463.63;4948023;28;20532;-73
2021/11/26 10:13:18;;;;;;;51.50;28.90;;;3.50;77.40;;;1.89;84.67;96458.88;4950468;28;20465;-72
2021/11/26 10:15:50;;;;;;;59.97;30.87;;;3.40;77.00;;;2.00;84.83;96457.47;4969941;28;20477;-73
2021/11/26 10:18:20;;;;;;;52.73;28.50;;;3.40;77.30;;;1.58;84.61;96446.84;4966708;28;20470;-74
2021/11/26 10:21:03;;;;;;;56.67;30.40;;;3.40;76.20;;;1.82;84.11;96443.69;4967212;28;20497;-72
2021/11/26 10:23:34;;;;;;;60.43;31.30;;;3.30;76.50;;;1.93;84.15;96428.16;4968205;28;20461;-72